Time;durP1;ratioP1;P1;durP2;ratioP2;P2;SDS_P1;SDS_P2;PMS_P1;PMS_P2;Temp;Humidity;BMP_temperature;BMP_pressure;BME280_temperature;BME280_humidity;BME280_pressure;Samples;Min_cycle;Max_cycle;Signal;HPM_P1;HPM_P2
2023/09/27 00:00:19;;;;;;;;;27.00;25.67;;;;;20.25;62.19;101471.66;5079223;27;45440;-67
2023/09/27 00:02:46;;;;;;;;;23.67;21.00;;;;;20.23;62.11;101479.66;5078093;27;46087;-66
2023/09/27 00:05:13;;;;;;;;;20.33;19.67;;;;;20.27;62.04;101496.44;5078769;27;45286;-67
2023/09/27 00:07:40;;;;;;;;;24.67;21.67;;;;;20.22;62.54;101485.06;5075723;27;45468;-67
2023/09/27 00:10:09;;;;;;;;;25.00;21.33;;;;;20.29;61.96;101494.63;5073331;27;45518;-66
2023/09/27 00:12:36;;;;;;;;;24.33;23.00;;;;;20.25;62.72;101488.50;5067667;27;45437;-66
2023/09/27 00:15:02;;;;;;;;;30.00;23.67;;;;;20.08;63.27;101488.94;5079486;27;45499;-66
2023/09/27 00:17:30;;;;;;;;;22.33;18.00;;;;;20.00;63.03;101490.03;5066776;27;45849;-67
2023/09/27 00:19:56;;;;;;;;;30.33;24.33;;;;;19.96;63.30;101481.28;5069208;27;45868;-67
2023/09/27 00:22:24;;;;;;;;;22.33;20.67;;;;;19.99;63.29;101489.16;5089227;27;45520;-68
2023/09/27 00:24:50;;;;;;;;;27.67;21.67;;;;;20.02;63.14;101490.88;5077768;27;45434;-69
2023/09/27 00:27:16;;;;;;;;;25.00;22.00;;;;;19.97;62.68;101477.69;5078728;27;45550;-66
2023/09/27 00:29:43;;;;;;;;;21.00;20.67;;;;;19.99;63.30;101488.28;5078434;27;45443;-67
2023/09/27 00:32:08;;;;;;;;;22.00;21.67;;;;;19.95;63.43;101483.97;5091831;27;45922;-66
2023/09/27 00:34:34;;;;;;;;;28.67;21.33;;;;;19.91;63.52;101485.84;5076715;27;45384;-66
2023/09/27 00:37:00;;;;;;;;;21.33;21.33;;;;;19.86;63.76;101479.72;5067032;27;45461;-66
2023/09/27 00:39:26;;;;;;;;;18.33;17.67;;;;;19.79;63.70;101483.44;5074848;27;45325;-68
2023/09/27 00:41:52;;;;;;;;;19.67;17.33;;;;;19.87;63.90;101493.00;5078019;27;45459;-68
2023/09/27 00:44:17;;;;;;;;;20.00;17.33;;;;;19.78;63.83;101468.44;5078785;27;45361;-67
2023/09/27 00:46:47;;;;;;;;;17.67;17.67;;;;;19.72;63.60;101468.56;5078241;28;45416;-67
2023/09/27 00:49:15;;;;;;;;;21.67;19.33;;;;;19.56;63.98;101436.16;5078610;27;45437;-67
2023/09/27 00:51:42;;;;;;;;;23.67;23.67;;;;;19.61;64.22;101439.56;5076416;27;46899;-67
2023/09/27 00:54:09;;;;;;;;;25.67;21.33;;;;;19.65;64.26;101465.19;5073528;27;45457;-67
2023/09/27 00:56:36;;;;;;;;;20.67;20.33;;;;;19.65;64.17;101468.69;5071922;28;45278;-66
2023/09/27 00:59:03;;;;;;;;;25.00;21.00;;;;;19.72;64.28;101481.84;5078205;28;45235;-69
2023/09/27 01:01:30;;;;;;;;;21.67;21.00;;;;;19.63;64.40;101478.50;5077627;28;46636;-68
2023/09/27 01:03:57;;;;;;;;;22.00;20.67;;;;;19.58;64.71;101472.41;5077065;27;45521;-66
2023/09/27 01:06:23;;;;;;;;;22.33;19.67;;;;;19.43;65.01;101471.00;5078124;27;45468;-68
2023/09/27 01:08:49;;;;;;;;;20.00;19.67;;;;;19.46;64.94;101464.75;5078086;27;45474;-68
2023/09/27 01:11:15;;;;;;;;;17.67;15.00;;;;;19.43;64.70;101471.00;5078642;27;45571;-68
2023/09/27 01:13:41;;;;;;;;;19.67;15.67;;;;;19.52;64.72;101461.91;5077935;27;45487;-68
2023/09/27 01:16:06;;;;;;;;;16.33;16.33;;;;;19.47;64.70;101464.69;5078021;27;45434;-68
2023/09/27 01:18:32;;;;;;;;;18.00;17.67;;;;;19.46;64.30;101470.91;5078721;27;45746;-68
2023/09/27 01:20:57;;;;;;;;;20.33;18.00;;;;;19.36;64.61;101450.81;5077798;27;46042;-67
2023/09/27 01:23:23;;;;;;;;;23.00;17.33;;;;;19.36;65.14;101460.53;5077761;27;45322;-67
2023/09/27 01:25:55;;;;;;;;;19.33;18.67;;;;;19.17;65.88;101449.44;5077968;28;45560;-68
2023/09/27 01:28:21;;;;;;;;;19.00;18.00;;;;;19.16;65.91;101461.00;5093254;27;45519;-69
2023/09/27 01:30:47;;;;;;;;;17.00;17.00;;;;;18.97;65.92;101426.00;5070618;27;45368;-67
2023/09/27 01:33:13;;;;;;;;;18.00;15.33;;;;;19.23;65.68;101462.59;5077385;28;45542;-68
2023/09/27 01:35:40;;;;;;;;;14.67;14.67;;;;;19.19;65.92;101469.75;5077746;27;45421;-68
2023/09/27 01:38:07;;;;;;;;;17.67;15.33;;;;;19.26;65.89;101478.44;5077937;27;45485;-68
2023/09/27 01:40:36;;;;;;;;;14.67;14.67;;;;;19.32;65.75;101488.09;5077608;27;45424;-68
2023/09/27 01:43:03;;;;;;;;;17.33;15.67;;;;;19.31;65.71;101473.91;5074107;27;45389;-68
2023/09/27 01:45:30;;;;;;;;;17.33;16.67;;;;;19.30;65.80;101473.97;5065501;28;45630;-68
2023/09/27 01:47:58;;;;;;;;;17.67;17.00;;;;;19.28;65.63;101463.38;5077089;28;45850;-68
2023/09/27 01:50:24;;;;;;;;;19.00;16.00;;;;;19.30;65.41;101463.34;5092606;27;46701;-66
2023/09/27 01:52:51;;;;;;;;;21.33;17.33;;;;;19.17;65.69;101454.75;5077081;27;45423;-67
2023/09/27 01:55:17;;;;;;;;;18.67;15.00;;;;;19.14;65.90;101461.00;5077531;27;45397;-68
2023/09/27 01:57:45;;;;;;;;;19.33;17.33;;;;;19.13;66.12;101471.69;5067385;27;45438;-68
2023/09/27 02:00:11;;;;;;;;;20.67;15.67;;;;;19.11;66.07;101477.03;5076785;27;45725;-68
2023/09/27 02:02:49;;;;;;;;;14.67;13.00;;;;;19.10;66.18;101477.94;5077139;27;47839;-67
2023/09/27 02:05:15;;;;;;;;;20.33;17.33;;;;;18.96;66.01;101457.00;5077497;27;45392;-66
2023/09/27 02:07:40;;;;;;;;;20.00;14.00;;;;;19.13;65.99;101487.63;5078353;27;45475;-68
2023/09/27 02:10:11;;;;;;;;;19.33;17.33;;;;;19.11;65.80;101468.19;5077589;27;45607;-68
2023/09/27 02:12:38;;;;;;;;;19.00;15.00;;;;;19.19;65.69;101485.69;5073487;27;45729;-68
2023/09/27 02:15:09;;;;;;;;;18.00;16.67;;;;;19.18;65.73;101481.28;5068387;27;45488;-68
2023/09/27 02:17:38;;;;;;;;;19.33;15.67;;;;;19.10;66.26;101474.38;5077892;27;45303;-67
2023/09/27 02:20:06;;;;;;;;;19.00;14.67;;;;;19.16;65.80;101471.59;5077117;27;45460;-68
2023/09/27 02:22:32;;;;;;;;;12.67;12.67;;;;;19.12;65.68;101459.31;5077128;27;45363;-68
2023/09/27 02:24:58;;;;;;;;;14.33;12.33;;;;;18.89;66.21;101427.94;5077080;27;45306;-68
2023/09/27 02:27:23;;;;;;;;;18.67;15.67;;;;;19.07;65.77;101467.38;5077942;27;45441;-67
2023/09/27 02:29:49;;;;;;;;;21.33;15.67;;;;;19.15;65.68;101464.53;5076126;27;46152;-66
2023/09/27 02:32:15;;;;;;;;;17.00;15.00;;;;;19.18;65.77;101459.19;5077196;27;45810;-67
2023/09/27 02:34:42;;;;;;;;;18.00;15.33;;;;;19.06;65.34;101433.78;5077121;27;45629;-65
2023/09/27 02:37:07;;;;;;;;;14.00;12.67;;;;;19.13;65.52;101447.78;5072591;27;45627;-67
2023/09/27 02:39:33;;;;;;;;;19.00;15.33;;;;;19.10;65.93;101458.44;5072991;27;45378;-67
2023/09/27 02:41:59;;;;;;;;;16.67;15.67;;;;;18.98;65.95;101441.91;5076692;27;45381;-67
2023/09/27 02:44:25;;;;;;;;;17.00;15.67;;;;;19.10;65.85;101455.81;5076304;27;45368;-66
2023/09/27 02:46:52;;;;;;;;;14.67;13.33;;;;;19.15;65.96;101452.16;5076763;27;45401;-66
2023/09/27 02:49:19;;;;;;;;;20.00;17.00;;;;;19.12;65.89;101468.13;5075618;27;46269;-66
2023/09/27 02:51:47;;;;;;;;;24.67;17.00;;;;;19.01;66.19;101460.41;5077028;27;45395;-66
2023/09/27 02:54:16;;;;;;;;;21.33;14.67;;;;;19.02;66.47;101466.59;5075765;28;45472;-67
2023/09/27 02:56:44;;;;;;;;;18.00;16.33;;;;;18.98;65.91;101439.25;5076572;27;45657;-66
2023/09/27 02:59:11;;;;;;;;;19.67;16.00;;;;;18.99;66.00;101454.25;5079671;27;45695;-66
2023/09/27 03:01:43;;;;;;;;;14.67;13.67;;;;;19.11;66.19;101477.03;5073737;27;45321;-66
2023/09/27 03:04:10;;;;;;;;;19.67;12.33;;;;;19.09;65.97;101476.16;5062004;27;45367;-66
2023/09/27 03:06:39;;;;;;;;;21.00;16.00;;;;;19.00;66.37;101468.41;5060362;28;45421;-66
2023/09/27 03:09:05;;;;;;;;;23.00;17.33;;;;;18.96;66.59;101464.06;5065192;27;45500;-66
2023/09/27 03:11:33;;;;;;;;;18.33;16.67;;;;;18.91;66.80;101452.66;5079862;28;45425;-67
2023/09/27 03:13:59;;;;;;;;;19.67;17.33;;;;;18.84;66.77;101457.25;5081362;27;45456;-67
2023/09/27 03:16:25;;;;;;;;;29.33;17.33;;;;;18.66;67.16;101445.19;5077000;27;45553;-67
2023/09/27 03:18:50;;;;;;;;;21.33;17.33;;;;;18.65;67.00;101443.47;5077645;27;45468;-70
2023/09/27 03:21:17;;;;;;;;;15.00;14.00;;;;;18.73;67.21;101452.13;5079700;27;45437;-67
2023/09/27 03:23:43;;;;;;;;;17.00;14.00;;;;;18.72;66.87;101441.53;5079961;27;46127;-67
2023/09/27 03:26:08;;;;;;;;;19.00;18.33;;;;;18.72;67.17;101446.84;5080218;27;45486;-66
2023/09/27 03:28:34;;;;;;;;;25.00;19.00;;;;;18.58;67.94;101437.41;5074539;27;45561;-66
2023/09/27 03:31:01;;;;;;;;;15.67;13.67;;;;;18.62;67.55;101439.06;5077235;27;45355;-66
2023/09/27 03:33:27;;;;;;;;;16.67;15.67;;;;;18.60;67.77;101447.97;5078711;27;46348;-67
2023/09/27 03:35:53;;;;;;;;;21.67;17.67;;;;;18.53;67.94;101441.03;5079981;27;45402;-68
2023/09/27 03:38:19;;;;;;;;;17.33;15.33;;;;;18.43;68.17;101432.38;5079510;27;45623;-67
2023/09/27 03:40:44;;;;;;;;;17.33;15.33;;;;;18.50;68.19;101428.69;5080578;27;45438;-67
2023/09/27 03:43:10;;;;;;;;;16.67;13.67;;;;;18.44;68.21;101418.22;5081022;27;45417;-67
2023/09/27 03:45:52;;;;;;;;;17.67;14.33;;;;;18.12;68.83;101371.97;5072414;28;45402;-67
2023/09/27 03:48:19;;;;;;;;;19.33;17.67;;;;;18.33;68.84;101405.16;5052780;28;45707;-67
2023/09/27 03:50:45;;;;;;;;;14.67;14.33;;;;;18.35;68.80;101423.72;5053577;28;45363;-68
2023/09/27 03:53:11;;;;;;;;;16.33;15.00;;;;;18.38;68.66;101431.59;5053681;28;45521;-67
2023/09/27 03:55:36;;;;;;;;;14.33;11.33;;;;;18.35;68.98;101429.00;5053759;28;45444;-68
2023/09/27 03:58:03;;;;;;;;;22.67;16.00;;;;;18.39;68.72;101414.78;5052844;28;44783;-68
2023/09/27 04:01:21;;;;;;;;;;;;;;;;;;;;;
2023/09/27 04:03:47;;;;;;;;;14.67;13.67;;;;;18.18;69.09;101409.00;5040117;28;63431;-69
2023/09/27 04:06:13;;;;;;;;;16.33;15.33;;;;;18.16;68.58;101397.53;5053173;28;46188;-69
2023/09/27 04:08:46;;;;;;;;;16.67;13.67;;;;;18.36;68.76;101417.47;5053039;28;45413;-68
2023/09/27 04:11:12;;;;;;;;;14.00;13.00;;;;;18.24;68.96;101408.00;5042405;28;45244;-70
2023/09/27 04:13:37;;;;;;;;;18.67;14.00;;;;;18.13;69.17;101408.22;5048750;28;45413;-69
2023/09/27 04:16:08;;;;;;;;;18.00;15.33;;;;;18.05;69.32;101404.81;5052590;28;45406;-68
2023/09/27 04:18:36;;;;;;;;;18.00;17.33;;;;;17.97;69.86;101414.69;5051909;28;45433;-68
2023/09/27 04:21:08;;;;;;;;;16.33;15.67;;;;;17.80;70.44;101405.25;5045539;28;45406;-68
2023/09/27 04:23:34;;;;;;;;;15.33;14.67;;;;;17.76;70.32;101414.13;5044773;28;45563;-66
2023/09/27 04:26:00;;;;;;;;;18.00;12.33;;;;;17.67;70.66;101411.63;5039604;28;46524;-68
2023/09/27 04:28:26;;;;;;;;;17.00;15.33;;;;;17.55;70.52;101390.63;5032290;28;45327;-68
2023/09/27 04:30:56;;;;;;;;;15.67;14.67;;;;;17.44;71.02;101381.97;5036891;28;45512;-68
2023/09/27 04:33:21;;;;;;;;;19.33;13.67;;;;;17.46;70.87;101389.00;5039337;28;45402;-67
2023/09/27 04:35:47;;;;;;;;;17.00;14.67;;;;;17.53;71.08;101408.31;5031975;28;46130;-68
2023/09/27 04:38:14;;;;;;;;;19.00;13.67;;;;;17.58;70.89;101401.16;5032394;28;45558;-67
2023/09/27 04:40:40;;;;;;;;;13.67;13.67;;;;;17.58;70.80;101387.94;5038705;28;45431;-68
2023/09/27 04:43:05;;;;;;;;;21.00;15.33;;;;;17.53;71.09;101384.47;5047347;28;45351;-69
2023/09/27 04:45:31;;;;;;;;;16.00;14.33;;;;;17.55;71.00;101393.28;5062068;27;46252;-67
2023/09/27 04:47:57;;;;;;;;;19.67;15.33;;;;;17.44;71.01;101384.63;5036918;28;45477;-69
2023/09/27 04:50:23;;;;;;;;;14.33;13.67;;;;;17.50;71.10;101398.66;5060480;27;45446;-68
2023/09/27 04:53:02;;;;;;;;;17.33;14.00;;;;;17.41;70.90;101374.09;5054129;28;45485;-68
2023/09/27 04:55:28;;;;;;;;;14.67;13.67;;;;;17.59;70.85;101392.34;5031195;28;46802;-68
2023/09/27 04:57:57;;;;;;;;;17.00;14.67;;;;;17.35;70.73;101353.91;5040075;28;45343;-69
2023/09/27 05:00:24;;;;;;;;;16.33;14.00;;;;;17.59;70.69;101387.91;5041738;28;45829;-69
2023/09/27 05:02:51;;;;;;;;;15.67;15.00;;;;;17.57;70.51;101394.13;5044973;28;45299;-69
2023/09/27 05:05:17;;;;;;;;;16.67;14.00;;;;;17.49;71.19;101390.75;5027381;28;46696;-69
2023/09/27 05:08:08;;;;;;;;;15.67;14.67;;;;;17.46;71.07;101389.00;5044939;28;45469;-69
2023/09/27 05:10:35;;;;;;;;;16.00;15.33;;;;;17.35;71.02;101368.00;5044381;28;45471;-67
2023/09/27 05:13:00;;;;;;;;;18.67;16.33;;;;;17.34;70.92;101358.28;5049998;28;45410;-66
2023/09/27 05:15:31;;;;;;;;;19.00;16.33;;;;;17.41;70.98;101382.03;5040979;28;45343;-67
2023/09/27 05:18:01;;;;;;;;;17.00;15.67;;;;;17.38;70.92;101375.03;5041156;28;45549;-68
2023/09/27 05:20:26;;;;;;;;;16.67;15.67;;;;;17.21;70.87;101347.94;5052123;28;45388;-71
2023/09/27 05:22:55;;;;;;;;;18.67;18.00;;;;;16.99;70.65;101312.97;5055003;28;45457;-69
2023/09/27 05:25:23;;;;;;;;;16.00;14.00;;;;;17.50;70.75;101400.44;5023118;28;47889;-69
2023/09/27 05:27:53;;;;;;;;;24.00;17.00;;;;;17.57;70.47;101380.91;5039548;28;45490;-69
2023/09/27 05:30:27;;;;;;;;;14.00;13.00;;;;;17.54;70.61;101384.47;5030985;28;45366;-69
2023/09/27 05:32:53;;;;;;;;;16.00;14.00;;;;;17.43;70.65;101374.94;5051031;28;45465;-68
2023/09/27 05:35:19;;;;;;;;;21.67;21.00;;;;;17.47;70.68;101393.41;5038575;28;45535;-67
2023/09/27 05:37:49;;;;;;;;;20.67;16.33;;;;;17.17;70.45;101347.09;5040871;28;45762;-69
2023/09/27 05:40:16;;;;;;;;;16.67;14.33;;;;;17.42;70.77;101397.06;5040432;28;45201;-70
2023/09/27 05:42:42;;;;;;;;;20.33;16.00;;;;;16.85;70.65;101316.72;5043010;28;45579;-68
2023/09/27 05:45:18;;;;;;;;;22.00;16.00;;;;;17.24;70.57;101383.19;5044139;28;46109;-70
2023/09/27 05:47:45;;;;;;;;;12.00;12.00;;;;;17.38;70.32;101391.78;5051414;28;45418;-71
2023/09/27 05:50:26;;;;;;;;;13.67;13.67;;;;;17.24;70.12;101371.72;5020031;28;45413;-68
2023/09/27 05:52:52;;;;;;;;;14.67;12.33;;;;;16.90;69.87;101328.13;5051642;28;45832;-68
2023/09/27 05:55:17;;;;;;;;;14.67;14.67;;;;;17.50;69.53;101434.88;5043299;28;46234;-70
2023/09/27 05:57:44;;;;;;;;;18.33;14.00;;;;;17.27;69.78;101388.41;5033425;28;45429;-71
2023/09/27 06:00:37;;;;;;;;;12.33;12.33;;;;;16.93;69.71;101346.56;5026634;28;45536;-68
2023/09/27 06:02:59;;;;;;;;;12.33;12.00;;;;;17.36;69.91;101424.47;5037359;28;45609;-68
2023/09/27 06:05:25;;;;;;;;;15.67;14.33;;;;;17.21;69.99;101409.69;5037714;28;46195;-68
2023/09/27 06:07:54;;;;;;;;;14.67;13.33;;;;;17.47;69.89;101441.09;5041441;28;45530;-69
2023/09/27 06:10:21;;;;;;;;;17.33;15.00;;;;;17.27;69.55;101403.44;5037643;28;45634;-70
2023/09/27 06:12:46;;;;;;;;;16.33;13.33;;;;;17.48;69.35;101434.00;5028584;28;45358;-68
2023/09/27 06:15:12;;;;;;;;;17.33;12.67;;;;;17.57;69.12;101434.75;5056506;28;46121;-70
2023/09/27 06:17:38;;;;;;;;;15.33;13.00;;;;;17.36;69.13;101403.28;5056792;28;45541;-70
2023/09/27 06:20:08;;;;;;;;;14.33;13.00;;;;;17.65;69.01;101439.03;5039034;28;45430;-71
2023/09/27 06:22:34;;;;;;;;;15.33;14.67;;;;;17.51;68.84;101386.28;5050837;28;45504;-70
2023/09/27 06:25:06;;;;;;;;;16.33;13.33;;;;;17.73;68.36;101419.47;5053315;28;46105;-68
2023/09/27 06:27:31;;;;;;;;;18.33;17.00;;;;;17.63;68.81;101412.59;5048735;28;45494;-67
2023/09/27 06:29:57;;;;;;;;;16.00;15.00;;;;;17.46;68.41;101396.06;5046683;28;45517;-71
2023/09/27 06:32:23;;;;;;;;;13.00;11.33;;;;;17.88;68.07;101447.50;5053807;28;45629;-68
2023/09/27 06:34:49;;;;;;;;;15.33;13.33;;;;;17.76;67.83;101413.25;5057297;28;45922;-68
2023/09/27 06:37:14;;;;;;;;;22.00;17.00;;;;;17.74;67.95;101417.69;5056974;28;45414;-70
2023/09/27 06:39:41;;;;;;;;;21.00;16.33;;;;;17.63;68.40;101404.66;5056896;28;45506;-68
2023/09/27 06:42:06;;;;;;;;;16.33;12.33;;;;;17.60;68.53;101412.63;5056952;28;45520;-69
2023/09/27 06:44:36;;;;;;;;;15.67;13.33;;;;;17.70;68.42;101408.03;5045994;28;45503;-65
2023/09/27 06:47:04;;;;;;;;;13.67;13.67;;;;;17.91;68.14;101443.94;5057796;28;45376;-68
2023/09/27 06:49:30;;;;;;;;;18.67;15.67;;;;;17.93;68.02;101423.59;5057193;28;45796;-71
2023/09/27 06:51:55;;;;;;;;;21.33;18.00;;;;;17.95;67.48;101432.38;5038339;28;45526;-70
2023/09/27 06:54:22;;;;;;;;;17.33;16.33;;;;;18.13;67.45;101447.97;5056459;28;46295;-69
2023/09/27 06:56:47;;;;;;;;;19.33;18.33;;;;;18.01;67.36;101414.59;5056965;28;45657;-70
2023/09/27 06:59:13;;;;;;;;;24.00;18.67;;;;;18.26;67.32;101437.13;5056638;28;45487;-69
2023/09/27 07:01:41;;;;;;;;;20.67;17.33;;;;;18.43;67.42;101442.97;5057623;28;45456;-69
2023/09/27 07:04:08;;;;;;;;;18.33;16.67;;;;;18.72;66.77;101438.88;5058183;28;46396;-73
2023/09/27 07:06:34;;;;;;;;;22.00;17.33;;;;;18.89;65.71;101449.16;5056132;28;45527;-68
2023/09/27 07:09:02;;;;;;;;;17.67;16.67;;;;;18.61;65.74;101400.19;5038341;28;45434;-71
2023/09/27 07:11:28;;;;;;;;;26.33;21.67;;;;;18.72;65.49;101402.63;5049411;28;45410;-69
2023/09/27 07:13:53;;;;;;;;;21.33;17.00;;;;;19.01;65.59;101448.94;5039170;28;46367;-71
2023/09/27 07:16:26;;;;;;;;;21.00;20.33;;;;;18.65;64.97;101382.44;5036008;28;45603;-69
2023/09/27 07:19:00;;;;;;;;;22.67;19.33;;;;;19.13;64.82;101443.34;5032490;28;45601;-67
2023/09/27 07:21:26;;;;;;;;;18.67;16.67;;;;;18.53;64.35;101329.59;5044643;28;45548;-71
2023/09/27 07:23:53;;;;;;;;;21.33;21.00;;;;;19.19;64.69;101445.84;5047524;28;45847;-73
2023/09/27 07:26:19;;;;;;;;;18.67;16.00;;;;;19.10;64.21;101410.66;5037453;28;45220;-74
2023/09/27 07:28:47;;;;;;;;;22.33;18.67;;;;;19.28;64.00;101435.00;5036918;28;45358;-73
2023/09/27 07:31:17;;;;;;;;;20.67;16.33;;;;;19.41;63.88;101437.38;5032115;28;45539;-71
2023/09/27 07:33:55;;;;;;;;;19.00;16.67;;;;;19.48;63.68;101420.38;5033550;28;45746;-71
2023/09/27 07:36:24;;;;;;;;;21.00;20.33;;;;;19.69;62.91;101434.97;5041659;28;44873;-74
2023/09/27 07:38:50;;;;;;;;;23.67;21.00;;;;;19.48;62.68;101392.06;5033876;28;45583;-74
2023/09/27 07:41:16;;;;;;;;;21.33;20.33;;;;;19.39;62.59;101368.38;5037931;28;45486;-74
2023/09/27 07:43:42;;;;;;;;;25.33;22.67;;;;;19.81;62.06;101417.84;5043999;28;46811;-74
2023/09/27 07:46:09;;;;;;;;;25.00;22.00;;;;;19.89;62.32;101430.03;5042470;28;45988;-71
2023/09/27 07:48:39;;;;;;;;;27.67;21.33;;;;;19.83;62.08;101416.03;5043479;28;45534;-74
2023/09/27 07:51:19;;;;;;;;;26.33;22.00;;;;;19.95;61.83;101426.34;5037154;28;45422;-73
2023/09/27 07:53:45;;;;;;;;;22.67;21.33;;;;;20.01;62.00;101442.13;5036471;28;45460;-73
2023/09/27 07:56:19;;;;;;;;;23.67;22.00;;;;;20.06;61.75;101434.03;5045543;28;45468;-74
2023/09/27 07:58:47;;;;;;;;;25.67;21.33;;;;;20.05;61.81;101419.88;5038451;28;45533;-72
2023/09/27 08:01:13;;;;;;;;;24.33;24.00;;;;;19.68;61.85;101348.19;5036134;28;45450;-73
2023/09/27 08:03:38;;;;;;;;;24.33;20.33;;;;;19.88;62.22;101407.03;5028625;28;45819;-73
2023/09/27 08:06:05;;;;;;;;;22.33;21.33;;;;;19.97;62.31;101423.66;5036801;28;45456;-73
2023/09/27 08:08:31;;;;;;;;;27.33;20.33;;;;;20.04;62.04;101422.56;5036482;28;45366;-74
2023/09/27 08:10:57;;;;;;;;;27.00;23.00;;;;;20.06;61.83;101412.78;5036719;28;45564;-74
2023/09/27 08:13:23;;;;;;;;;28.00;22.00;;;;;20.10;61.74;101422.41;5049989;28;45370;-73
2023/09/27 08:15:52;;;;;;;;;30.00;24.00;;;;;20.12;61.53;101412.59;5025299;28;45374;-75
2023/09/27 08:18:18;;;;;;;;;31.33;25.33;;;;;20.03;62.00;101408.41;5056719;28;45243;-73
2023/09/27 08:20:44;;;;;;;;;26.67;23.67;;;;;19.98;62.12;101405.00;5057007;28;45481;-74
2023/09/27 08:23:10;;;;;;;;;26.33;21.33;;;;;20.06;62.15;101402.13;5056622;28;45496;-74
2023/09/27 08:25:37;;;;;;;;;24.33;20.67;;;;;20.23;61.64;101402.53;5038115;28;45465;-75
2023/09/27 08:28:08;;;;;;;;;23.67;21.00;;;;;20.24;61.12;101398.09;5056123;28;45418;-71
2023/09/27 08:30:35;;;;;;;;;29.00;24.00;;;;;20.23;61.49;101410.50;5054375;28;45327;-74
2023/09/27 08:33:01;;;;;;;;;26.00;21.67;;;;;20.22;61.14;101399.94;5059176;28;47656;-75
2023/09/27 08:35:27;;;;;;;;;22.33;21.67;;;;;20.22;61.64;101413.25;5060477;28;45498;-73
2023/09/27 08:37:53;;;;;;;;;29.00;25.33;;;;;20.39;61.06;101388.81;5041799;28;45439;-72
2023/09/27 08:40:18;;;;;;;;;24.33;20.00;;;;;20.03;60.77;101320.66;5059169;28;45504;-74
2023/09/27 08:42:50;;;;;;;;;25.67;21.67;;;;;20.54;60.37;101386.56;5040873;28;46972;-75
2023/09/27 08:45:19;;;;;;;;;27.67;21.33;;;;;20.45;60.27;101354.91;5059440;28;46365;-73
2023/09/27 08:47:45;;;;;;;;;24.67;23.00;;;;;20.58;59.87;101387.41;5059551;28;45549;-75
2023/09/27 08:50:19;;;;;;;;;24.67;21.00;;;;;20.64;59.78;101365.03;5059542;28;45510;-73
2023/09/27 08:52:46;;;;;;;;;24.67;21.33;;;;;20.84;59.15;101377.78;5058483;28;45542;-73
2023/09/27 08:55:15;;;;;;;;;20.00;16.00;;;;;20.63;58.99;101342.88;5058945;28;45468;-70
2023/09/27 08:57:46;;;;;;;;;24.67;19.33;;;;;20.93;58.60;101364.19;5032883;28;45534;-74
2023/09/27 09:00:19;;;;;;;;;20.00;18.00;;;;;20.86;58.47;101317.38;5026350;28;45518;-75
2023/09/27 09:02:56;;;;;;;;;21.33;17.33;;;;;21.24;57.83;101349.88;5049383;28;45441;-73
2023/09/27 09:05:24;;;;;;;;;18.67;17.00;;;;;21.43;57.49;101339.50;5040611;28;45391;-73
2023/09/27 09:08:06;;;;;;;;;19.00;18.33;;;;;21.63;57.05;101333.50;5058841;28;45577;-72
2023/09/27 09:10:37;;;;;;;;;19.67;14.00;;;;;21.72;56.51;101320.72;5054903;28;45434;-72
2023/09/27 09:13:04;;;;;;;;;17.00;15.00;;;;;21.81;56.59;101343.53;5042558;28;45510;-73
2023/09/27 09:15:35;;;;;;;;;17.00;14.33;;;;;21.78;56.45;101333.84;5058730;28;45486;-72
2023/09/27 09:18:32;;;;;;;;;18.00;16.67;;;;;21.57;56.39;101340.78;5058976;28;45422;-71
2023/09/27 09:21:08;;;;;;;;;16.00;14.67;;;;;21.44;57.28;101330.59;5050161;28;45870;-73
2023/09/27 09:23:38;;;;;;;;;16.00;15.67;;;;;21.46;57.23;101318.09;5058979;28;45338;-71
2023/09/27 09:26:15;;;;;;;;;19.33;14.33;;;;;21.49;57.18;101315.31;5058080;28;45650;-73
2023/09/27 09:28:56;;;;;;;;;20.00;16.00;;;;;21.25;56.61;101253.91;5058177;28;45437;-72
2023/09/27 09:31:22;;;;;;;;;19.67;14.33;;;;;21.68;56.29;101296.88;5046309;28;45163;-70
2023/09/27 09:34:08;;;;;;;;;16.33;13.33;;;;;22.01;56.14;101325.00;5058029;28;46606;-71
2023/09/27 09:36:36;;;;;;;;;15.00;13.33;;;;;22.24;55.63;101318.00;5057439;28;45550;-70
2023/09/27 09:39:14;;;;;;;;;15.00;13.00;;;;;22.38;54.94;101318.34;5059405;28;45428;-74
2023/09/27 09:41:51;;;;;;;;;10.67;10.67;;;;;22.57;54.54;101312.31;5058509;28;45517;-72
2023/09/27 09:44:24;;;;;;;;;12.00;12.00;;;;;22.78;53.99;101322.16;5057302;28;46688;-74
2023/09/27 09:46:56;;;;;;;;;14.00;11.00;;;;;23.03;53.14;101321.19;5058761;28;45433;-74
2023/09/27 09:49:22;;;;;;;;;17.33;13.00;;;;;22.96;52.91;101284.94;5040509;28;45354;-75
2023/09/27 09:51:52;;;;;;;;;19.00;14.67;;;;;22.80;52.80;101236.59;5058462;28;45426;-76
2023/09/27 09:54:27;;;;;;;;;14.67;11.67;;;;;23.29;52.40;101317.44;5039876;28;47142;-74
2023/09/27 09:56:57;;;;;;;;;13.33;11.67;;;;;23.39;51.82;101324.13;5058252;28;45427;-70
2023/09/27 09:59:30;;;;;;;;;12.67;11.00;;;;;23.50;52.22;101287.13;5039660;28;45365;-74
2023/09/27 10:01:59;;;;;;;;;16.00;12.33;;;;;23.67;51.47;101288.19;5058221;28;45619;-73
2023/09/27 10:04:27;;;;;;;;;17.00;11.67;;;;;23.55;51.14;101267.34;5056345;28;47776;-71
2023/09/27 10:06:55;;;;;;;;;12.00;9.00;;;;;23.17;50.68;101179.88;5044062;28;45408;-71
2023/09/27 10:09:28;;;;;;;;;11.67;11.67;;;;;23.68;50.80;101225.72;5058093;28;45381;-71
2023/09/27 10:11:55;;;;;;;;;12.33;12.33;;;;;24.06;50.40;101261.50;5044716;28;45336;-75
2023/09/27 10:14:21;;;;;;;;;14.67;9.33;;;;;24.20;50.03;101255.47;5057968;28;45611;-71
2023/09/27 10:16:50;;;;;;;;;10.67;10.67;;;;;24.34;49.18;101262.84;5057879;28;45442;-73
2023/09/27 10:19:27;;;;;;;;;12.67;10.33;;;;;24.21;49.06;101224.25;5057813;28;45386;-71
2023/09/27 10:22:08;;;;;;;;;13.67;10.00;;;;;24.60;48.69;101248.25;5058746;28;45374;-68
2023/09/27 10:24:36;;;;;;;;;11.67;11.67;;;;;24.51;48.61;101208.53;5047088;28;45332;-71
2023/09/27 10:27:02;;;;;;;;;11.67;10.67;;;;;24.80;48.49;101220.50;5057548;28;45499;-69
2023/09/27 10:29:29;;;;;;;;;12.33;11.00;;;;;25.27;47.30;101233.34;5057904;28;45288;-72
2023/09/27 10:31:57;;;;;;;;;8.75;6.50;;;;;25.44;47.00;101236.94;5059616;28;45284;-71
2023/09/27 10:34:28;;;;;;;;;11.50;10.75;;;;;25.37;46.92;101242.63;5057871;28;47145;-74
2023/09/27 10:36:59;;;;;;;;;12.00;9.75;;;;;25.51;46.97;101238.38;5058040;28;45412;-70
2023/09/27 10:39:25;;;;;;;;;9.75;9.75;;;;;25.54;46.13;101192.63;5057435;28;45485;-73
2023/09/27 10:41:53;;;;;;;;;12.25;10.75;;;;;25.95;45.42;101232.47;5058408;28;45430;-71
2023/09/27 10:44:33;;;;;;;;;12.25;10.00;;;;;26.16;45.76;101220.53;5057889;28;46488;-72
2023/09/27 10:47:00;;;;;;;;;14.50;11.25;;;;;26.32;44.68;101220.56;5039350;28;45506;-74
2023/09/27 10:49:30;;;;;;;;;11.75;11.50;;;;;26.75;44.41;101228.88;5039590;28;45574;-73
2023/09/27 10:51:56;;;;;;;;;10.00;10.00;;;;;26.95;43.57;101222.31;5057813;28;45344;-73
2023/09/27 10:54:23;;;;;;;;;12.00;11.50;;;;;27.24;43.56;101217.06;5057128;28;45655;-75
2023/09/27 10:56:53;;;;;;;;;14.00;12.25;;;;;27.86;42.04;101179.22;5058116;28;45505;-74
2023/09/27 10:59:27;;;;;;;;;14.50;13.00;;;;;29.08;39.85;101159.47;5058249;28;45338;-76
2023/09/27 11:01:54;;;;;;;;;12.75;11.50;;;;;29.70;39.12;101230.75;5057850;28;45498;-74
2023/09/27 11:04:22;;;;;;;;;8.00;7.00;;;;;30.56;37.02;101224.53;5055372;28;47821;-75
2023/09/27 11:06:56;;;;;;;;;11.50;10.00;;;;;30.91;36.79;101212.94;5038899;28;45410;-74
2023/09/27 11:09:23;;;;;;;;;12.50;11.75;;;;;31.58;35.02;101209.56;5057287;28;45572;-75
2023/09/27 11:11:54;;;;;;;;;14.25;11.25;;;;;30.64;35.96;101222.13;5043671;28;45411;-74
2023/09/27 11:14:32;;;;;;;;;12.25;11.25;;;;;30.12;36.65;101231.34;5057666;28;45590;-74
2023/09/27 11:17:22;;;;;;;;;11.20;10.20;;;;;29.80;37.32;101221.00;5056908;28;45678;-73